createdAt,value
2023-05-05T00:00:52.347Z,63.83
2023-05-05T00:01:52.341Z,63.73
2023-05-05T00:02:52.350Z,63.62
2023-05-05T00:03:52.378Z,63.73
2023-05-05T00:04:52.274Z,63.73
2023-05-05T00:05:52.319Z,63.73
2023-05-05T00:06:52.263Z,63.62
2023-05-05T00:07:52.255Z,63.62
2023-05-05T00:08:52.235Z,63.73
2023-05-05T00:09:52.227Z,63.93
2023-05-05T00:10:52.255Z,63.62
2023-05-05T00:11:52.205Z,63.73
2023-05-05T00:12:52.242Z,63.73
2023-05-05T00:13:52.194Z,63.73
2023-05-05T00:14:52.232Z,63.73
2023-05-05T00:15:52.201Z,63.62
2023-05-05T00:16:52.185Z,63.62
2023-05-05T00:17:52.228Z,63.83
2023-05-05T00:18:52.136Z,63.53
2023-05-05T00:19:52.115Z,63.53
2023-05-05T00:20:52.362Z,63.53
2023-05-05T00:21:52.122Z,63.62
2023-05-05T00:22:52.082Z,63.42
2023-05-05T00:23:52.085Z,63.42
2023-05-05T00:24:52.102Z,63.42
2023-05-05T00:25:52.057Z,63.42
2023-05-05T00:26:52.052Z,63.53
2023-05-05T00:27:52.069Z,63.53
2023-05-05T00:28:52.047Z,63.53
2023-05-05T00:29:52.036Z,63.53
2023-05-05T00:30:52.060Z,63.62
2023-05-05T00:31:52.016Z,63.53
2023-05-05T00:32:52.016Z,63.62
2023-05-05T00:33:52.017Z,63.53
2023-05-05T00:34:51.961Z,63.42
2023-05-05T00:35:51.966Z,63.53
2023-05-05T00:36:51.990Z,63.53
2023-05-05T00:37:51.940Z,63.56
2023-05-05T00:38:51.969Z,63.62
2023-05-05T00:39:51.914Z,63.76
2023-05-05T00:40:51.938Z,63.56
2023-05-05T00:41:51.897Z,63.45
2023-05-05T00:42:51.889Z,63.56
2023-05-05T00:43:51.888Z,63.56
2023-05-05T00:44:51.892Z,63.65
2023-05-05T00:45:51.849Z,63.86
2023-05-05T00:46:51.864Z,63.76
2023-05-05T00:47:51.874Z,63.76
2023-05-05T00:48:51.860Z,63.96
2023-05-05T00:49:51.840Z,63.96
2023-05-05T00:50:51.813Z,64.06
2023-05-05T00:51:51.799Z,64.06
2023-05-05T00:52:51.796Z,64.06
2023-05-05T00:53:51.787Z,64.06
2023-05-05T00:54:51.751Z,64.17
2023-05-05T00:55:51.771Z,64.47
2023-05-05T00:56:51.746Z,64.26
2023-05-05T00:57:51.736Z,64.26
2023-05-05T00:58:51.713Z,64.26
2023-05-05T00:59:51.711Z,64.17
2023-05-05T01:00:51.703Z,64.06
2023-05-05T01:01:51.743Z,63.96
2023-05-05T01:02:51.717Z,63.86
2023-05-05T01:03:51.738Z,64.06
2023-05-05T01:04:51.656Z,63.96
2023-05-05T01:05:51.657Z,63.86
2023-05-05T01:06:51.643Z,64.06
2023-05-05T01:07:51.619Z,64.09
2023-05-05T01:08:51.603Z,63.99
2023-05-05T01:10:00.898Z,64.09
2023-05-05T01:10:51.607Z,64.09
2023-05-05T01:11:51.609Z,64.29
2023-05-05T01:12:51.603Z,64.20
2023-05-05T01:13:51.557Z,64.09
2023-05-05T01:14:51.550Z,64.09
2023-05-05T01:15:51.570Z,64.20
2023-05-05T01:16:51.528Z,64.29
2023-05-05T01:17:51.591Z,64.20
2023-05-05T01:18:51.503Z,64.29
2023-05-05T01:19:51.485Z,64.20
2023-05-05T01:20:51.565Z,64.29
2023-05-05T01:21:51.482Z,64.29
2023-05-05T01:22:52.329Z,64.40
2023-05-05T01:23:51.449Z,64.40
2023-05-05T01:24:51.581Z,64.60
2023-05-05T01:25:51.761Z,64.50
2023-05-05T01:26:51.436Z,64.50
2023-05-05T01:27:51.406Z,64.50
2023-05-05T01:28:51.406Z,64.81
2023-05-05T01:29:51.414Z,64.63
2023-05-05T01:30:51.373Z,64.53
2023-05-05T01:31:51.454Z,64.53
2023-05-05T01:32:51.390Z,64.53
2023-05-05T01:33:51.347Z,64.63
2023-05-05T01:34:51.399Z,64.43
2023-05-05T01:35:51.315Z,64.53
2023-05-05T01:36:51.308Z,64.53
2023-05-05T01:37:51.443Z,64.43
2023-05-05T01:38:51.310Z,64.63
2023-05-05T01:39:51.307Z,64.53
2023-05-05T01:40:51.276Z,64.63
2023-05-05T01:41:51.270Z,64.73
2023-05-05T01:42:51.254Z,64.63
2023-05-05T01:43:51.270Z,64.73
2023-05-05T01:44:51.229Z,64.63
2023-05-05T01:45:51.269Z,64.73
2023-05-05T01:46:51.217Z,64.84
2023-05-05T01:47:51.227Z,64.73
2023-05-05T01:48:51.199Z,64.84
2023-05-05T01:49:51.182Z,64.84
2023-05-05T01:50:51.171Z,64.84
2023-05-05T01:51:51.158Z,64.94
2023-05-05T01:52:51.194Z,64.94
2023-05-05T01:53:51.121Z,64.94
2023-05-05T01:54:51.147Z,64.94
2023-05-05T01:55:51.139Z,65.04
2023-05-05T01:56:51.098Z,65.14
2023-05-05T01:57:51.092Z,65.28
2023-05-05T01:58:51.114Z,65.28
2023-05-05T01:59:51.098Z,65.37
2023-05-05T02:00:51.115Z,65.28
2023-05-05T02:01:51.054Z,65.28
2023-05-05T02:02:51.175Z,65.37
2023-05-05T02:03:51.011Z,65.28
2023-05-05T02:04:51.142Z,65.17
2023-05-05T02:05:50.998Z,65.37
2023-05-05T02:06:51.013Z,65.37
2023-05-05T02:07:50.987Z,65.28
2023-05-05T02:08:50.970Z,65.37
2023-05-05T02:09:50.961Z,65.48
2023-05-05T02:10:51.060Z,65.48
2023-05-05T02:11:50.961Z,65.37
2023-05-05T02:12:50.988Z,65.28
2023-05-05T02:13:50.952Z,65.48
2023-05-05T02:14:50.917Z,65.48
2023-05-05T02:15:51.027Z,65.48
2023-05-05T02:16:50.888Z,65.48
2023-05-05T02:17:50.901Z,65.48
2023-05-05T02:18:50.871Z,65.58
2023-05-05T02:19:50.862Z,65.58
2023-05-05T02:20:50.864Z,65.61
2023-05-05T02:21:50.859Z,65.58
2023-05-05T02:22:50.891Z,65.58
2023-05-05T02:23:50.805Z,65.71
2023-05-05T02:24:50.811Z,65.81
2023-05-05T02:25:50.804Z,65.81
2023-05-05T02:26:50.788Z,65.81
2023-05-05T02:27:50.778Z,65.92
2023-05-05T02:28:50.759Z,65.81
2023-05-05T02:29:50.770Z,65.71
2023-05-05T02:30:50.773Z,65.81
2023-05-05T02:31:50.843Z,65.92
2023-05-05T02:32:50.774Z,65.81
2023-05-05T02:33:50.709Z,65.81
2023-05-05T02:34:50.743Z,65.61
2023-05-05T02:35:50.689Z,65.61
2023-05-05T02:36:50.678Z,65.71
2023-05-05T02:37:50.661Z,65.61
2023-05-05T02:38:50.672Z,65.61
2023-05-05T02:39:50.677Z,65.71
2023-05-05T02:40:50.629Z,65.81
2023-05-05T02:41:50.613Z,65.81
2023-05-05T02:42:50.665Z,65.92
2023-05-05T02:43:50.614Z,65.92
2023-05-05T02:44:50.599Z,65.92
2023-05-05T02:45:50.645Z,65.92
2023-05-05T02:46:50.611Z,65.81
2023-05-05T02:47:50.571Z,65.71
2023-05-05T02:48:50.546Z,65.71
2023-05-05T02:49:50.528Z,65.81
2023-05-05T02:50:50.532Z,65.71
2023-05-05T02:51:50.509Z,65.61
2023-05-05T02:52:50.561Z,65.51
2023-05-05T02:53:50.494Z,65.61
2023-05-05T02:54:50.478Z,65.61
2023-05-05T02:55:50.471Z,65.51
2023-05-05T02:56:50.422Z,65.71
2023-05-05T02:57:50.398Z,65.61
2023-05-05T02:58:50.577Z,65.51
2023-05-05T02:59:50.455Z,65.51
2023-05-05T03:00:50.445Z,65.51
2023-05-05T03:01:50.486Z,65.61
2023-05-05T03:02:50.492Z,65.61
2023-05-05T03:03:50.441Z,65.74
2023-05-05T03:04:50.370Z,65.74
2023-05-05T03:05:50.368Z,65.74
2023-05-05T03:06:50.317Z,65.74
2023-05-05T03:07:50.301Z,65.95
2023-05-05T03:08:50.295Z,65.95
2023-05-05T03:09:50.275Z,65.95
2023-05-05T03:10:50.249Z,65.95
2023-05-05T03:11:50.243Z,65.84
2023-05-05T03:12:50.277Z,65.84
2023-05-05T03:13:50.218Z,66.05
2023-05-05T03:14:50.215Z,65.84
2023-05-05T03:15:50.203Z,65.74
2023-05-05T03:16:50.216Z,65.64
2023-05-05T03:17:50.225Z,65.71
2023-05-05T03:18:50.175Z,65.54
2023-05-05T03:19:50.181Z,65.84
2023-05-05T03:20:50.146Z,65.84
2023-05-05T03:21:50.160Z,65.95
2023-05-05T03:22:50.134Z,65.95
2023-05-05T03:23:50.113Z,66.05
2023-05-05T03:24:50.110Z,65.95
2023-05-05T03:25:50.120Z,65.84
2023-05-05T03:26:50.110Z,65.95
2023-05-05T03:27:50.088Z,65.95
2023-05-05T03:28:50.072Z,65.84
2023-05-05T03:29:50.046Z,65.84
2023-05-05T03:30:50.049Z,65.95
2023-05-05T03:31:50.145Z,66.15
2023-05-05T03:32:50.069Z,66.28
2023-05-05T03:33:50.020Z,66.28
2023-05-05T03:34:50.025Z,66.28
2023-05-05T03:35:50.017Z,66.39
2023-05-05T03:36:49.975Z,66.39
2023-05-05T03:37:49.983Z,66.49
2023-05-05T03:38:49.953Z,66.59
2023-05-05T03:39:49.971Z,66.80
2023-05-05T03:40:49.964Z,66.90
2023-05-05T03:41:49.922Z,67.00
2023-05-05T03:42:49.977Z,66.90
2023-05-05T03:43:49.938Z,67.00
2023-05-05T03:44:49.923Z,67.00
2023-05-05T03:45:49.958Z,66.83
2023-05-05T03:46:49.872Z,67.13
2023-05-05T03:47:49.912Z,67.10
2023-05-05T03:48:49.849Z,67.13
2023-05-05T03:49:49.852Z,67.03
2023-05-05T03:50:49.825Z,67.03
2023-05-05T03:51:49.807Z,67.13
2023-05-05T03:52:49.806Z,67.13
2023-05-05T03:53:49.791Z,67.13
2023-05-05T03:54:49.813Z,67.24
2023-05-05T03:55:49.785Z,67.13
2023-05-05T03:56:49.780Z,67.24
2023-05-05T03:57:49.746Z,67.24
2023-05-05T03:58:49.765Z,67.24
2023-05-05T03:59:49.743Z,67.13
2023-05-05T04:00:49.750Z,67.03
2023-05-05T04:01:49.722Z,67.13
2023-05-05T04:02:49.824Z,67.03
2023-05-05T04:03:49.756Z,67.03
2023-05-05T04:04:49.693Z,67.13
2023-05-05T04:05:49.684Z,67.03
2023-05-05T04:06:49.675Z,67.10
2023-05-05T04:07:49.656Z,67.00
2023-05-05T04:08:49.655Z,67.03
2023-05-05T04:09:49.630Z,67.13
2023-05-05T04:10:49.656Z,67.03
2023-05-05T04:11:49.620Z,67.03
2023-05-05T04:12:49.728Z,67.13
2023-05-05T04:13:49.898Z,67.34
2023-05-05T04:14:49.583Z,67.44
2023-05-05T04:15:49.613Z,67.54
2023-05-05T04:16:49.565Z,67.65
2023-05-05T04:17:49.586Z,67.75
2023-05-05T04:18:49.588Z,67.85
2023-05-05T04:19:49.565Z,67.68
2023-05-05T04:20:49.528Z,67.78
2023-05-05T04:21:49.516Z,67.78
2023-05-05T04:22:51.413Z,67.98
2023-05-05T04:23:49.488Z,68.08
2023-05-05T04:24:50.511Z,67.98
2023-05-05T04:25:49.458Z,67.98
2023-05-05T04:26:49.464Z,67.75
2023-05-05T04:27:49.499Z,67.54
2023-05-05T04:28:49.445Z,67.54
2023-05-05T04:29:49.424Z,67.34
2023-05-05T04:30:49.418Z,67.54
2023-05-05T04:31:49.611Z,67.54
2023-05-05T04:32:49.448Z,67.54
2023-05-05T04:33:49.377Z,67.54
2023-05-05T04:34:49.366Z,67.13
2023-05-05T04:35:49.375Z,67.13
2023-05-05T04:36:49.395Z,67.13
2023-05-05T04:37:49.323Z,67.03
2023-05-05T04:38:49.352Z,67.03
2023-05-05T04:39:49.353Z,67.00
2023-05-05T04:40:49.321Z,67.00
2023-05-05T04:41:49.312Z,66.80
2023-05-05T04:42:49.290Z,66.93
2023-05-05T04:43:49.290Z,66.83
2023-05-05T04:44:49.260Z,66.93
2023-05-05T04:45:49.316Z,67.03
2023-05-05T04:46:49.299Z,66.93
2023-05-05T04:47:49.272Z,66.93
2023-05-05T04:48:49.292Z,66.83
2023-05-05T04:49:49.275Z,66.69
2023-05-05T04:50:49.215Z,66.59
2023-05-05T04:51:49.203Z,66.59
2023-05-05T04:52:50.782Z,66.69
2023-05-05T04:53:49.160Z,66.49
2023-05-05T04:54:49.227Z,66.49
2023-05-05T04:55:49.294Z,66.62
2023-05-05T04:56:49.148Z,66.59
2023-05-05T04:57:49.127Z,66.49
2023-05-05T04:58:49.134Z,66.59
2023-05-05T04:59:49.106Z,66.59
2023-05-05T05:00:49.107Z,66.28
2023-05-05T05:01:49.150Z,66.08
2023-05-05T05:02:49.153Z,66.08
2023-05-05T05:03:49.114Z,66.08
2023-05-05T05:04:49.071Z,66.39
2023-05-05T05:05:49.035Z,66.18
2023-05-05T05:06:49.035Z,66.08
2023-05-05T05:07:49.031Z,65.98
2023-05-05T05:08:48.998Z,65.88
2023-05-05T05:09:49.009Z,66.08
2023-05-05T05:10:48.977Z,65.98
2023-05-05T05:11:49.010Z,65.88
2023-05-05T05:12:49.012Z,65.74
2023-05-05T05:13:48.981Z,65.54
2023-05-05T05:14:48.958Z,65.44
2023-05-05T05:15:48.951Z,65.54
2023-05-05T05:16:48.984Z,65.44
2023-05-05T05:17:48.945Z,65.44
2023-05-05T05:18:48.902Z,65.23
2023-05-05T05:19:48.914Z,64.83
2023-05-05T05:20:48.869Z,65.03
2023-05-05T05:21:48.886Z,64.90
2023-05-05T05:22:48.865Z,64.69
2023-05-05T05:23:48.902Z,64.49
2023-05-05T05:24:48.832Z,64.46
2023-05-05T05:25:48.834Z,64.05
2023-05-05T05:26:48.814Z,64.05
2023-05-05T05:27:58.520Z,63.85
2023-05-05T05:28:48.829Z,63.75
2023-05-05T05:29:48.788Z,63.34
2023-05-05T05:30:48.770Z,63.00
2023-05-05T05:31:48.772Z,62.80
2023-05-05T05:32:48.792Z,62.59
2023-05-05T05:33:48.739Z,62.80
2023-05-05T05:34:48.728Z,62.59
2023-05-05T05:35:48.715Z,62.59
2023-05-05T05:36:48.703Z,62.49
2023-05-05T05:37:48.973Z,62.49
2023-05-05T05:38:48.685Z,61.98
2023-05-05T05:39:48.671Z,62.08
2023-05-05T05:40:48.653Z,62.39
2023-05-05T05:41:48.667Z,62.39
2023-05-05T05:42:48.657Z,62.29
2023-05-05T05:43:48.618Z,62.08
2023-05-05T05:44:48.637Z,62.05
2023-05-05T05:45:48.680Z,61.75
2023-05-05T05:46:48.617Z,61.14
2023-05-05T05:47:48.637Z,61.24
2023-05-05T05:48:48.606Z,60.83
2023-05-05T05:49:48.576Z,60.91
2023-05-05T05:50:48.555Z,60.70
2023-05-05T05:51:48.557Z,60.60
2023-05-05T05:52:48.550Z,60.80
2023-05-05T05:53:48.528Z,60.39
2023-05-05T05:54:48.532Z,60.30
2023-05-05T05:55:48.515Z,60.19
2023-05-05T05:56:48.554Z,59.99
2023-05-05T05:57:48.489Z,59.99
2023-05-05T05:58:48.506Z,59.48
2023-05-05T05:59:48.463Z,59.28
2023-05-05T06:00:48.454Z,58.87
2023-05-05T06:01:48.440Z,59.17
2023-05-05T06:02:48.550Z,59.07
2023-05-05T06:03:48.462Z,58.87
2023-05-05T06:04:48.411Z,58.67
2023-05-05T06:05:48.428Z,58.56
2023-05-05T06:06:48.405Z,58.46
2023-05-05T06:07:48.414Z,58.53
2023-05-05T06:08:48.350Z,58.03
2023-05-05T06:09:48.368Z,58.03
2023-05-05T06:10:48.360Z,57.72
2023-05-05T06:11:48.344Z,57.59
2023-05-05T06:12:48.352Z,57.49
2023-05-05T06:13:48.313Z,56.68
2023-05-05T06:14:48.311Z,56.88
2023-05-05T06:15:48.365Z,56.95
2023-05-05T06:16:55.035Z,56.65
2023-05-05T06:17:48.313Z,56.42
2023-05-05T06:18:48.247Z,55.63
2023-05-05T06:19:48.254Z,55.83
2023-05-05T06:20:48.309Z,55.83
2023-05-05T06:21:48.237Z,56.16
2023-05-05T06:22:48.221Z,56.27
2023-05-05T06:23:48.227Z,56.24
2023-05-05T06:24:48.198Z,56.34
2023-05-05T06:25:48.280Z,56.55
2023-05-05T06:26:48.166Z,56.65
2023-05-05T06:27:48.215Z,56.45
2023-05-05T06:28:48.152Z,57.16
2023-05-05T06:29:48.180Z,57.26
2023-05-05T06:30:48.151Z,56.65
2023-05-05T06:31:48.170Z,56.27
2023-05-05T06:32:48.149Z,56.47
2023-05-05T06:33:48.120Z,56.45
2023-05-05T06:34:48.096Z,56.14
2023-05-05T06:35:48.075Z,56.04
2023-05-05T06:36:48.206Z,55.71
2023-05-05T06:37:48.058Z,55.71
2023-05-05T06:38:48.056Z,55.10
2023-05-05T06:39:48.052Z,55.00
2023-05-05T06:40:48.033Z,54.97
2023-05-05T06:41:48.007Z,54.66
2023-05-05T06:42:48.016Z,54.87
2023-05-05T06:43:47.995Z,54.66
2023-05-05T06:44:47.974Z,54.36
2023-05-05T06:45:48.062Z,54.05
2023-05-05T06:46:48.021Z,54.13
2023-05-05T06:47:48.088Z,54.24
2023-05-05T06:48:47.937Z,54.03
2023-05-05T06:49:47.942Z,54.33
2023-05-05T06:50:47.911Z,54.24
2023-05-05T06:51:47.922Z,54.44
2023-05-05T06:52:48.057Z,54.44
2023-05-05T06:53:48.022Z,54.33
2023-05-05T06:54:47.891Z,53.83
2023-05-05T06:55:47.891Z,54.03
2023-05-05T06:56:47.865Z,54.11
2023-05-05T06:57:47.880Z,53.91
2023-05-05T06:58:47.839Z,53.80
2023-05-05T06:59:47.843Z,53.63
2023-05-05T07:00:47.840Z,53.93
2023-05-05T07:01:47.827Z,53.91
2023-05-05T07:02:47.851Z,53.80
2023-05-05T07:03:47.848Z,53.50
2023-05-05T07:04:47.777Z,53.47
2023-05-05T07:05:47.769Z,53.17
2023-05-05T07:06:47.797Z,53.37
2023-05-05T07:07:47.733Z,53.55
2023-05-05T07:08:47.727Z,52.81
2023-05-05T07:09:47.713Z,52.61
2023-05-05T07:10:47.818Z,52.39
2023-05-05T07:11:47.735Z,52.48
2023-05-05T07:12:47.701Z,52.28
2023-05-05T07:13:47.683Z,52.06
2023-05-05T07:14:47.668Z,51.27
2023-05-05T07:15:47.670Z,51.37
2023-05-05T07:16:47.638Z,51.04
2023-05-05T07:17:47.667Z,50.96
2023-05-05T07:18:47.646Z,52.11
2023-05-05T07:19:47.638Z,52.20
2023-05-05T07:20:47.622Z,52.11
2023-05-05T07:21:47.680Z,52.20
2023-05-05T07:22:47.580Z,52.00
2023-05-05T07:23:47.655Z,51.90
2023-05-05T07:24:48.623Z,51.90
2023-05-05T07:25:47.594Z,51.90
2023-05-05T07:26:47.538Z,51.98
2023-05-05T07:27:47.565Z,51.88
2023-05-05T07:28:47.548Z,51.88
2023-05-05T07:29:47.506Z,52.06
2023-05-05T07:30:47.578Z,51.75
2023-05-05T07:31:47.579Z,51.55
2023-05-05T07:32:47.509Z,51.42
2023-05-05T07:33:47.485Z,51.42
2023-05-05T07:34:47.545Z,51.02
2023-05-05T07:35:47.494Z,51.22
2023-05-05T07:36:47.446Z,51.09
2023-05-05T07:37:47.440Z,50.77
2023-05-05T07:38:47.414Z,50.54
2023-05-05T07:39:47.460Z,50.01
2023-05-05T07:40:47.388Z,48.65
2023-05-05T07:41:47.376Z,47.90
2023-05-05T07:42:47.576Z,46.75
2023-05-05T07:43:47.444Z,45.15
2023-05-05T07:44:47.447Z,43.46
2023-05-05T07:45:47.353Z,41.89
2023-05-05T07:46:47.331Z,40.13
2023-05-05T07:47:47.347Z,38.76
2023-05-05T07:48:47.376Z,37.60
2023-05-05T07:49:47.311Z,36.55
2023-05-05T07:50:47.305Z,35.94
2023-05-05T07:51:47.301Z,35.01
2023-05-05T07:52:51.804Z,34.18
2023-05-05T07:53:47.267Z,33.76
2023-05-05T07:54:47.259Z,33.57
2023-05-05T07:55:47.238Z,33.36
2023-05-05T07:56:47.219Z,33.12
2023-05-05T07:57:47.232Z,32.60
2023-05-05T07:58:47.195Z,32.30
2023-05-05T07:59:47.212Z,31.77
2023-05-05T08:00:47.170Z,30.97
2023-05-05T08:01:47.161Z,30.54
2023-05-05T08:02:47.305Z,30.46
2023-05-05T08:03:47.202Z,30.95
2023-05-05T08:04:47.178Z,30.44
2023-05-05T08:05:47.130Z,30.54
2023-05-05T08:06:47.124Z,30.15
2023-05-05T08:07:47.120Z,29.93
2023-05-05T08:08:47.102Z,29.62
2023-05-05T08:09:47.157Z,29.32
2023-05-05T08:10:47.068Z,29.41
2023-05-05T08:11:47.066Z,28.91
2023-05-05T08:12:47.082Z,28.80
2023-05-05T08:13:47.059Z,28.70
2023-05-05T08:14:47.043Z,29.19
2023-05-05T08:15:47.086Z,28.69
2023-05-05T08:16:47.009Z,28.68
2023-05-05T08:17:47.086Z,28.79
2023-05-05T08:18:46.977Z,28.78
2023-05-05T08:19:46.994Z,28.88
2023-05-05T08:20:46.960Z,28.55
2023-05-05T08:21:47.110Z,28.27
2023-05-05T08:22:47.000Z,28.17
2023-05-05T08:23:46.929Z,28.26
2023-05-05T08:24:46.930Z,28.06
2023-05-05T08:25:46.919Z,28.45
2023-05-05T08:26:46.944Z,28.16
2023-05-05T08:27:47.009Z,28.26
2023-05-05T08:28:46.870Z,27.95
2023-05-05T08:29:46.887Z,28.58
2023-05-05T08:30:46.863Z,28.89
2023-05-05T08:31:46.925Z,29.51
2023-05-05T08:32:46.935Z,29.64
2023-05-05T08:33:46.826Z,30.34
2023-05-05T08:34:46.822Z,30.46
2023-05-05T08:35:46.866Z,30.67
2023-05-05T08:36:46.800Z,31.07
2023-05-05T08:37:46.816Z,31.74
2023-05-05T08:38:46.804Z,30.85
2023-05-05T08:39:46.763Z,30.97
2023-05-05T08:40:46.761Z,30.87
2023-05-05T08:41:46.753Z,31.36
2023-05-05T08:42:46.770Z,31.39
2023-05-05T08:43:46.733Z,31.72
2023-05-05T08:44:46.731Z,31.85
2023-05-05T08:45:46.708Z,33.27
2023-05-05T08:46:46.730Z,33.48
2023-05-05T08:47:47.105Z,34.30
2023-05-05T08:48:46.681Z,34.22
2023-05-05T08:49:46.733Z,35.14
2023-05-05T08:50:46.674Z,36.04
2023-05-05T08:51:46.681Z,35.42
2023-05-05T08:52:48.091Z,35.34
2023-05-05T08:53:46.614Z,35.54
2023-05-05T08:54:46.605Z,36.04
2023-05-05T08:55:46.594Z,36.05
2023-05-05T08:56:46.595Z,36.47
2023-05-05T08:57:46.601Z,36.57
2023-05-05T08:58:46.556Z,36.37
2023-05-05T08:59:46.558Z,36.57
2023-05-05T09:00:46.639Z,36.79
2023-05-05T09:01:46.560Z,37.32
2023-05-05T09:02:46.699Z,38.34
2023-05-05T09:03:46.516Z,38.62
2023-05-05T09:04:46.505Z,38.32
2023-05-05T09:05:46.512Z,38.12
2023-05-05T09:06:46.481Z,38.60
2023-05-05T09:07:46.459Z,37.49
2023-05-05T09:08:46.466Z,37.38
2023-05-05T09:09:46.460Z,37.38
2023-05-05T09:10:46.438Z,37.60
2023-05-05T09:11:46.441Z,37.42
2023-05-05T09:12:46.448Z,38.14
2023-05-05T09:13:46.428Z,38.96
2023-05-05T09:14:46.398Z,38.98
2023-05-05T09:15:46.392Z,39.07
2023-05-05T09:16:46.418Z,39.09
2023-05-05T09:17:46.387Z,39.18
2023-05-05T09:18:46.402Z,38.48
2023-05-05T09:19:46.336Z,38.85
2023-05-05T09:20:46.334Z,38.34
2023-05-05T09:21:46.357Z,38.00
2023-05-05T09:22:46.349Z,37.49
2023-05-05T09:23:46.304Z,36.47
2023-05-05T09:24:46.352Z,36.35
2023-05-05T09:25:46.319Z,36.25
2023-05-05T09:26:46.272Z,36.46
2023-05-05T09:27:46.297Z,36.69
2023-05-05T09:28:46.241Z,36.79
2023-05-05T09:29:46.280Z,36.65
2023-05-05T09:30:46.253Z,36.55
2023-05-05T09:31:46.544Z,36.85
2023-05-05T09:32:46.240Z,36.35
2023-05-05T09:33:46.237Z,36.34
2023-05-05T09:34:46.181Z,36.54
2023-05-05T09:35:46.205Z,36.46
2023-05-05T09:36:46.183Z,36.93
2023-05-05T09:37:46.207Z,36.55
2023-05-05T09:38:46.209Z,36.93
2023-05-05T09:39:46.135Z,37.23
2023-05-05T09:40:46.130Z,38.01
2023-05-05T09:41:46.138Z,36.78
2023-05-05T09:42:46.126Z,35.38
2023-05-05T09:43:46.095Z,36.45
2023-05-05T09:44:46.093Z,35.04
2023-05-05T09:45:46.073Z,34.31
2023-05-05T09:46:46.154Z,34.91
2023-05-05T09:47:46.130Z,35.09
2023-05-05T09:48:46.104Z,33.82
2023-05-05T09:49:46.068Z,35.36
2023-05-05T09:50:46.018Z,36.49
2023-05-05T09:51:46.030Z,36.38
2023-05-05T09:52:46.706Z,37.79
2023-05-05T09:53:46.169Z,36.70
2023-05-05T09:54:46.025Z,37.02
2023-05-05T09:55:46.004Z,37.73
2023-05-05T09:56:45.973Z,37.65
2023-05-05T09:57:46.037Z,38.07
2023-05-05T09:58:45.948Z,38.50
2023-05-05T09:59:46.474Z,40.52
2023-05-05T10:00:45.959Z,39.22
2023-05-05T10:01:45.985Z,39.64
2023-05-05T10:02:45.904Z,39.14
2023-05-05T10:03:45.899Z,39.43
2023-05-05T10:04:45.937Z,39.76
2023-05-05T10:05:45.911Z,39.46
2023-05-05T10:06:45.906Z,40.06
2023-05-05T10:07:45.881Z,39.95
2023-05-05T10:08:45.831Z,39.43
2023-05-05T10:09:45.823Z,39.24
2023-05-05T10:10:45.829Z,39.24
2023-05-05T10:11:45.843Z,39.76
2023-05-05T10:12:45.814Z,39.78
2023-05-05T10:13:45.824Z,40.17
2023-05-05T10:14:45.788Z,40.08
2023-05-05T10:15:45.806Z,40.37
2023-05-05T10:16:45.917Z,40.47
2023-05-05T10:17:57.798Z,40.28
2023-05-05T10:18:45.734Z,40.08
2023-05-05T10:19:45.743Z,39.76
2023-05-05T10:20:45.842Z,39.43
2023-05-05T10:21:45.721Z,39.12
2023-05-05T10:22:45.723Z,38.92
2023-05-05T10:23:45.676Z,39.42
2023-05-05T10:24:45.668Z,39.32
2023-05-05T10:25:45.708Z,39.34
2023-05-05T10:26:45.715Z,39.54
2023-05-05T10:27:45.679Z,39.54
2023-05-05T10:28:45.634Z,39.56
2023-05-05T10:29:45.662Z,39.95
2023-05-05T10:30:45.650Z,39.65
2023-05-05T10:31:45.613Z,39.46
2023-05-05T10:32:59.874Z,39.46
2023-05-05T10:33:45.665Z,39.76
2023-05-05T10:34:45.578Z,39.54
2023-05-05T10:35:45.563Z,38.80
2023-05-05T10:36:45.539Z,38.18
2023-05-05T10:37:45.589Z,37.67
2023-05-05T10:38:45.532Z,37.43
2023-05-05T10:39:45.539Z,37.23
2023-05-05T10:40:45.521Z,36.93
2023-05-05T10:41:45.497Z,37.15
2023-05-05T10:42:45.514Z,37.37
2023-05-05T10:43:45.495Z,37.98
2023-05-05T10:44:45.497Z,37.88
2023-05-05T10:45:45.510Z,38.32
2023-05-05T10:46:45.573Z,38.31
2023-05-05T10:47:45.516Z,38.32
2023-05-05T10:48:45.460Z,38.64
2023-05-05T10:49:45.405Z,39.15
2023-05-05T10:50:45.447Z,39.76
2023-05-05T10:51:45.414Z,39.26
2023-05-05T10:52:45.427Z,39.67
2023-05-05T10:53:45.437Z,39.86
2023-05-05T10:54:45.376Z,39.36
2023-05-05T10:55:45.384Z,39.46
2023-05-05T10:56:45.345Z,39.12
2023-05-05T10:57:45.380Z,38.48
2023-05-05T10:58:59.244Z,38.07
2023-05-05T10:59:45.317Z,37.97
2023-05-05T11:00:45.320Z,37.67
2023-05-05T11:01:45.310Z,37.98
2023-05-05T11:02:45.302Z,38.09
2023-05-05T11:03:45.299Z,38.10
2023-05-05T11:04:45.304Z,38.31
2023-05-05T11:05:45.257Z,38.40
2023-05-05T11:06:45.283Z,38.27
2023-05-05T11:07:45.254Z,39.16
2023-05-05T11:08:45.212Z,39.25
2023-05-05T11:09:45.242Z,38.75
2023-05-05T11:10:45.250Z,39.36
2023-05-05T11:11:45.192Z,40.26
2023-05-05T11:12:45.191Z,39.76
2023-05-05T11:13:45.172Z,38.76
2023-05-05T11:14:45.244Z,37.97
2023-05-05T11:15:45.137Z,39.16
2023-05-05T11:16:45.212Z,38.27
2023-05-05T11:17:45.139Z,40.16
2023-05-05T11:18:45.116Z,39.26
2023-05-05T11:19:45.099Z,38.78
2023-05-05T11:20:45.124Z,39.30
2023-05-05T11:21:45.117Z,39.42
2023-05-05T11:22:45.091Z,40.32
2023-05-05T11:23:45.081Z,40.12
2023-05-05T11:24:45.053Z,40.00
2023-05-05T11:25:45.041Z,39.98
2023-05-05T11:26:45.059Z,40.10
2023-05-05T11:27:45.019Z,39.62
2023-05-05T11:28:45.016Z,40.72
2023-05-05T11:29:44.990Z,38.90
2023-05-05T11:30:45.043Z,39.20
2023-05-05T11:31:44.964Z,39.40
2023-05-05T11:32:45.051Z,38.89
2023-05-05T11:33:44.958Z,38.18
2023-05-05T11:34:44.966Z,38.78
2023-05-05T11:35:44.960Z,39.50
2023-05-05T11:36:44.946Z,38.60
2023-05-05T11:37:44.934Z,38.67
2023-05-05T11:38:44.907Z,38.05
2023-05-05T11:39:44.906Z,37.95
2023-05-05T11:40:44.927Z,37.35
2023-05-05T11:41:44.888Z,38.27
2023-05-05T11:42:44.858Z,37.49
2023-05-05T11:43:44.849Z,38.20
2023-05-05T11:44:44.918Z,38.50
2023-05-05T11:45:45.011Z,38.72
2023-05-05T11:46:44.927Z,40.04
2023-05-05T11:47:44.807Z,40.16
2023-05-05T11:48:44.824Z,40.56
2023-05-05T11:49:44.831Z,40.75
2023-05-05T11:50:44.774Z,40.45
2023-05-05T11:51:44.778Z,39.76
2023-05-05T11:52:44.753Z,39.84
2023-05-05T11:53:44.747Z,38.84
2023-05-05T11:54:44.774Z,39.84
2023-05-05T11:55:44.726Z,39.84
2023-05-05T11:56:44.713Z,39.52
2023-05-05T11:57:44.704Z,39.02
2023-05-05T11:58:44.731Z,38.82
2023-05-05T11:59:44.731Z,38.32
2023-05-05T12:00:44.695Z,38.54
2023-05-05T12:01:44.668Z,38.94
2023-05-05T12:02:44.731Z,39.42
2023-05-05T12:03:44.797Z,38.84
2023-05-05T12:04:44.684Z,38.52
2023-05-05T12:05:44.650Z,38.60
2023-05-05T12:06:44.617Z,38.48
2023-05-05T12:07:44.612Z,37.97
2023-05-05T12:08:44.592Z,38.09
2023-05-05T12:09:44.572Z,38.18
2023-05-05T12:10:44.618Z,38.17
2023-05-05T12:11:44.619Z,38.07
2023-05-05T12:12:44.575Z,37.97
2023-05-05T12:13:44.550Z,38.37
2023-05-05T12:14:44.556Z,37.87
2023-05-05T12:15:44.547Z,38.07
2023-05-05T12:16:44.555Z,37.45
2023-05-05T12:17:44.527Z,37.63
2023-05-05T12:18:44.501Z,37.00
2023-05-05T12:19:44.495Z,35.97
2023-05-05T12:20:44.514Z,35.57
2023-05-05T12:21:44.464Z,35.16
2023-05-05T12:22:44.504Z,34.74
2023-05-05T12:23:44.495Z,34.94
2023-05-05T12:24:44.428Z,34.83
2023-05-05T12:25:44.411Z,34.33
2023-05-05T12:26:44.441Z,34.52
2023-05-05T12:27:44.412Z,34.52
2023-05-05T12:28:44.407Z,34.12
2023-05-05T12:29:44.385Z,34.52
2023-05-05T12:30:44.448Z,34.01
2023-05-05T12:31:44.443Z,34.22
2023-05-05T12:32:44.530Z,34.69
2023-05-05T12:33:44.370Z,34.08
2023-05-05T12:34:44.321Z,33.77
2023-05-05T12:35:44.327Z,32.88
2023-05-05T12:36:44.317Z,33.37
2023-05-05T12:37:44.300Z,32.96
2023-05-05T12:38:44.291Z,32.88
2023-05-05T12:39:44.273Z,33.07
2023-05-05T12:40:44.262Z,32.68
2023-05-05T12:41:44.268Z,32.56
2023-05-05T12:42:45.778Z,32.04
2023-05-05T12:43:44.242Z,32.03
2023-05-05T12:44:44.232Z,31.32
2023-05-05T12:45:44.284Z,30.79
2023-05-05T12:46:44.230Z,29.99
2023-05-05T12:47:44.237Z,30.27
2023-05-05T12:48:47.259Z,30.16
2023-05-05T12:49:44.166Z,30.27
2023-05-05T12:50:44.152Z,30.66
2023-05-05T12:51:44.164Z,30.57
2023-05-05T12:52:44.158Z,30.78